Time;durP1;ratioP1;P1;durP2;ratioP2;P2;SDS_P1;SDS_P2;PMS_P1;PMS_P2;Temp;Humidity;BMP_temperature;BMP_pressure;BME280_temperature;BME280_humidity;BME280_pressure;Samples;Min_cycle;Max_cycle;Signal;HPM_P1;HPM_P2
2022/05/28 00:02:17;;;;;;;5.80;2.53;;;17.60;78.60;;;;;;7388285;19;20430;-87
2022/05/28 00:04:47;;;;;;;10.00;3.17;;;17.50;78.70;;;;;;7392390;19;20412;-86
2022/05/28 00:07:19;;;;;;;6.83;3.37;;;17.50;79.70;;;;;;7388059;19;20630;-86
2022/05/28 00:09:49;;;;;;;5.77;3.10;;;17.50;78.70;;;;;;7386173;19;20508;-86
2022/05/28 00:12:18;;;;;;;4.70;2.57;;;17.40;79.10;;;;;;7384031;19;20412;-86
2022/05/28 00:14:50;;;;;;;4.53;3.00;;;17.40;81.40;;;;;;7375981;19;20536;-86
2022/05/28 00:17:19;;;;;;;8.03;2.60;;;17.40;81.30;;;;;;7381904;19;20634;-86
2022/05/28 00:19:49;;;;;;;4.53;2.30;;;17.30;80.80;;;;;;7381243;19;20405;-85
2022/05/28 00:22:21;;;;;;;7.37;2.70;;;17.30;80.80;;;;;;7379177;19;21176;-85
2022/05/28 00:24:50;;;;;;;3.93;3.00;;;17.40;82.30;;;;;;7382470;19;20539;-85
2022/05/28 00:27:20;;;;;;;4.70;3.53;;;17.40;82.10;;;;;;7384015;19;20425;-85
2022/05/28 00:29:54;;;;;;;5.00;3.77;;;17.40;81.40;;;;;;7379462;19;20415;-84
2022/05/28 00:32:23;;;;;;;6.60;2.90;;;17.40;82.70;;;;;;7376221;19;20415;-85
2022/05/28 00:34:53;;;;;;;6.77;2.70;;;17.30;84.20;;;;;;7376679;19;21905;-84
2022/05/28 00:37:22;;;;;;;5.93;3.13;;;17.30;86.00;;;;;;7367460;19;20416;-84
2022/05/28 00:39:52;;;;;;;4.10;3.00;;;17.40;86.60;;;;;;7377394;19;20856;-92
2022/05/28 00:42:23;;;;;;;6.20;2.73;;;17.30;85.10;;;;;;7392718;19;20400;-94
2022/05/28 00:44:57;;;;;;;4.10;3.00;;;17.30;82.50;;;;;;7389199;19;20412;-93
2022/05/28 00:47:27;;;;;;;5.23;2.90;;;17.20;83.60;;;;;;7386884;19;20743;-94
2022/05/28 00:50:00;;;;;;;6.80;3.40;;;16.90;81.00;;;;;;7389616;19;20413;-94
2022/05/28 00:52:32;;;;;;;7.17;2.53;;;17.00;82.70;;;;;;7392876;19;20423;-94
2022/05/28 00:55:04;;;;;;;8.00;3.10;;;16.90;82.90;;;;;;7389031;19;20412;-94
2022/05/28 00:57:33;;;;;;;5.70;3.50;;;17.00;83.70;;;;;;7387712;19;21485;-94
2022/05/28 01:00:10;;;;;;;7.37;3.60;;;17.00;83.60;;;;;;7387672;19;20415;-93
2022/05/28 01:02:45;;;;;;;3.97;3.10;;;17.10;85.10;;;;;;7387745;19;20409;-94
2022/05/28 01:05:23;;;;;;;4.10;3.00;;;17.10;85.40;;;;;;7389530;19;20866;-95
2022/05/28 01:08:15;;;;;;;10.13;3.37;;;17.10;85.00;;;;;;7389134;19;20396;-95
2022/05/28 01:10:52;;;;;;;10.00;5.30;;;17.00;86.70;;;;;;7384896;19;20428;-85
2022/05/28 01:13:26;;;;;;;9.03;3.73;;;16.80;87.30;;;;;;7378946;19;20416;-85
2022/05/28 01:16:03;;;;;;;6.60;3.73;;;16.70;87.20;;;;;;7372933;19;20421;-85
2022/05/28 01:18:39;;;;;;;6.00;3.13;;;16.80;88.20;;;;;;7377567;19;20469;-85
2022/05/28 01:21:13;;;;;;;3.60;3.30;;;16.70;89.50;;;;;;7375529;19;20420;-85
2022/05/28 01:23:54;;;;;;;8.17;3.30;;;16.70;88.00;;;;;;7379397;19;20411;-85
2022/05/28 01:26:32;;;;;;;5.93;3.03;;;16.90;84.20;;;;;;7379723;19;20575;-84
2022/05/28 01:29:13;;;;;;;6.37;3.50;;;16.80;84.20;;;;;;7374200;19;20431;-85
2022/05/28 01:31:43;;;;;;;6.03;2.93;;;16.80;83.50;;;;;;7375610;19;20404;-84
2022/05/28 01:34:13;;;;;;;11.10;3.00;;;16.60;82.10;;;;;;7374227;19;20407;-85
2022/05/28 01:36:43;;;;;;;5.00;3.20;;;16.80;81.50;;;;;;7382074;19;20412;-85
2022/05/28 01:39:15;;;;;;;6.50;2.87;;;16.80;80.90;;;;;;7374781;19;20401;-85
2022/05/28 01:41:45;;;;;;;7.53;3.17;;;16.70;78.30;;;;;;7414641;19;20399;-96
2022/05/28 01:44:23;;;;;;;6.70;3.77;;;16.60;78.10;;;;;;7423787;19;20471;-96
2022/05/28 01:46:54;;;;;;;4.20;2.60;;;16.80;78.30;;;;;;7423055;19;20529;-95
2022/05/28 01:49:27;;;;;;;4.97;2.43;;;17.30;82.80;;;;;;7426276;19;20398;-96
2022/05/28 01:52:00;;;;;;;10.03;3.33;;;16.60;80.80;;;;;;7424428;19;20400;-95
2022/05/28 01:54:35;;;;;;;7.13;3.50;;;16.90;79.80;;;;;;7402465;19;20711;-86
2022/05/28 01:57:05;;;;;;;8.67;3.60;;;16.30;73.60;;;;;;7366839;19;20439;-86
2022/05/28 01:59:38;;;;;;;7.53;3.47;;;16.50;73.30;;;;;;7376727;19;20903;-85
2022/05/28 02:02:10;;;;;;;6.40;3.90;;;16.40;72.30;;;;;;7374551;19;20429;-85
2022/05/28 02:04:45;;;;;;;5.80;2.50;;;16.30;73.50;;;;;;7382452;19;20944;-83
2022/05/28 02:07:15;;;;;;;4.13;2.73;;;16.30;74.30;;;;;;7374202;19;20932;-85
2022/05/28 02:09:50;;;;;;;6.70;2.97;;;16.40;74.20;;;;;;7375352;19;20405;-84
2022/05/28 02:12:27;;;;;;;8.17;3.00;;;16.30;70.90;;;;;;7380021;19;20976;-85
2022/05/28 02:15:20;;;;;;;7.90;2.70;;;16.00;70.80;;;;;;7375728;19;20408;-85
2022/05/28 02:17:52;;;;;;;5.60;2.40;;;16.00;71.70;;;;;;7378539;19;20894;-85
2022/05/28 02:20:31;;;;;;;5.97;2.40;;;16.10;71.40;;;;;;7376380;19;20499;-84
2022/05/28 02:23:08;;;;;;;7.40;2.70;;;16.20;69.80;;;;;;7378024;19;20428;-85
2022/05/28 02:25:42;;;;;;;5.30;2.20;;;16.20;69.10;;;;;;7377737;19;20426;-85
2022/05/28 02:28:13;;;;;;;5.47;2.70;;;16.10;68.40;;;;;;7356204;19;20404;-85
2022/05/28 02:30:53;;;;;;;9.00;2.83;;;16.10;67.20;;;;;;7374560;19;23701;-84
2022/05/28 02:33:24;;;;;;;4.00;2.07;;;16.10;67.70;;;;;;7381480;19;20416;-85
2022/05/28 02:35:55;;;;;;;10.40;2.50;;;15.90;66.60;;;;;;7375145;19;20416;-85
2022/05/28 02:38:25;;;;;;;9.90;2.23;;;15.90;67.40;;;;;;7379487;19;20404;-86
2022/05/28 02:40:55;;;;;;;4.43;1.80;;;16.00;67.20;;;;;;7381775;19;20420;-85
2022/05/28 02:43:24;;;;;;;6.60;2.63;;;15.90;65.90;;;;;;7379888;19;20951;-85
2022/05/28 02:45:57;;;;;;;4.30;1.83;;;15.60;65.80;;;;;;7376862;19;20405;-85
2022/05/28 02:48:26;;;;;;;6.37;2.30;;;15.60;66.80;;;;;;7383333;19;20453;-85
2022/05/28 02:51:04;;;;;;;8.23;2.13;;;15.70;65.90;;;;;;7380074;19;20416;-84
2022/05/28 02:53:34;;;;;;;6.33;2.20;;;15.70;65.50;;;;;;7377012;19;20412;-85
2022/05/28 02:56:07;;;;;;;5.47;2.60;;;15.60;64.70;;;;;;7377863;19;20515;-85
2022/05/28 02:58:40;;;;;;;5.03;2.07;;;15.60;65.40;;;;;;7387542;19;20419;-85
2022/05/28 03:01:25;;;;;;;6.63;2.03;;;15.50;66.80;;;;;;7376414;19;20431;-86
2022/05/28 03:03:57;;;;;;;6.67;2.47;;;15.50;65.20;;;;;;7412848;19;20902;-86
2022/05/28 03:06:29;;;;;;;6.57;2.03;;;15.50;65.40;;;;;;7412951;19;20400;-86
2022/05/28 03:09:01;;;;;;;8.43;2.27;;;15.50;65.80;;;;;;7408864;19;20408;-86
2022/05/28 03:11:30;;;;;;;6.30;2.30;;;15.40;65.10;;;;;;7410011;19;20420;-85
2022/05/28 03:14:03;;;;;;;9.80;2.70;;;15.50;65.60;;;;;;7413513;19;20396;-85
2022/05/28 03:16:35;;;;;;;5.97;2.07;;;15.40;64.50;;;;;;7406941;19;20450;-87
2022/05/28 03:19:04;;;;;;;6.10;2.33;;;15.40;63.30;;;;;;7389865;19;20739;-86
2022/05/28 03:21:34;;;;;;;8.03;2.33;;;15.50;64.30;;;;;;7381563;19;20408;-86
2022/05/28 03:24:06;;;;;;;5.70;1.73;;;15.50;64.10;;;;;;7383223;19;20405;-85
2022/05/28 03:26:35;;;;;;;8.10;2.53;;;15.50;63.10;;;;;;7383399;19;21114;-85
2022/05/28 03:29:07;;;;;;;5.03;2.83;;;15.50;63.40;;;;;;7383516;19;20922;-85
2022/05/28 03:31:40;;;;;;;8.70;2.30;;;15.60;63.90;;;;;;7377911;19;20412;-85
2022/05/28 03:34:09;;;;;;;8.87;2.10;;;15.40;62.50;;;;;;7375671;19;20421;-84
2022/05/28 03:36:39;;;;;;;6.63;1.50;;;15.40;61.70;;;;;;7376103;19;20503;-85
2022/05/28 03:39:08;;;;;;;3.93;2.13;;;15.50;62.30;;;;;;7378997;19;20928;-86
2022/05/28 03:41:38;;;;;;;6.63;1.60;;;15.50;62.30;;;;;;7380828;19;21054;-85
2022/05/28 03:44:07;;;;;;;9.70;2.43;;;15.50;61.70;;;;;;7380104;19;20436;-86
2022/05/28 03:46:43;;;;;;;6.40;2.00;;;15.40;60.70;;;;;;7366273;19;22201;-86
2022/05/28 03:49:21;;;;;;;7.33;1.77;;;15.40;60.90;;;;;;7380638;19;20419;-85
2022/05/28 03:51:51;;;;;;;5.73;1.67;;;15.40;61.50;;;;;;7377241;19;20396;-86
2022/05/28 03:54:21;;;;;;;5.03;1.73;;;15.30;61.70;;;;;;7374973;19;20438;-85
2022/05/28 03:56:59;;;;;;;4.83;1.80;;;15.30;60.40;;;;;;7347650;19;20435;-79
2022/05/28 03:59:29;;;;;;;4.70;1.60;;;15.10;61.60;;;;;;7361960;19;20412;-78
2022/05/28 04:02:01;;;;;;;5.03;2.00;;;14.80;63.10;;;;;;7361680;19;21249;-79
2022/05/28 04:04:31;;;;;;;7.07;1.70;;;14.50;62.30;;;;;;7365182;19;20432;-79
2022/05/28 04:07:01;;;;;;;4.00;1.60;;;14.40;62.60;;;;;;7360770;19;20408;-78
2022/05/28 04:09:31;;;;;;;8.93;2.00;;;14.30;63.40;;;;;;7355174;19;20483;-79
2022/05/28 04:12:00;;;;;;;8.73;2.57;;;14.40;64.30;;;;;;7363370;19;20407;-79
2022/05/28 04:14:30;;;;;;;11.07;2.93;;;14.50;65.00;;;;;;7365009;19;21249;-79
2022/05/28 04:17:02;;;;;;;13.43;2.30;;;14.50;65.10;;;;;;7361514;19;20420;-79
2022/05/28 04:19:34;;;;;;;17.40;2.63;;;14.60;67.10;;;;;;7367964;19;20410;-80
2022/05/28 04:22:03;;;;;;;8.10;1.87;;;14.60;64.70;;;;;;7366206;19;20908;-80
2022/05/28 04:24:33;;;;;;;6.07;2.30;;;14.40;62.90;;;;;;7368679;19;20417;-80
2022/05/28 04:27:03;;;;;;;4.43;1.63;;;14.40;63.50;;;;;;7366177;19;20425;-80
2022/05/28 04:29:32;;;;;;;5.67;1.93;;;14.30;64.20;;;;;;7367026;19;20364;-80
2022/05/28 04:32:04;;;;;;;7.60;1.87;;;14.10;64.10;;;;;;7366445;19;20364;-79
2022/05/28 04:34:36;;;;;;;7.80;1.97;;;14.20;64.80;;;;;;7374779;19;20506;-80
2022/05/28 04:37:06;;;;;;;6.83;1.67;;;14.20;65.10;;;;;;7368666;19;20821;-81
2022/05/28 04:39:35;;;;;;;8.93;2.00;;;14.20;65.50;;;;;;7368768;19;20408;-81
2022/05/28 04:42:05;;;;;;;5.07;1.80;;;14.20;65.90;;;;;;7372072;19;20946;-80
2022/05/28 04:44:34;;;;;;;8.00;1.90;;;14.10;67.00;;;;;;7374762;19;20392;-79
2022/05/28 04:47:07;;;;;;;3.37;1.60;;;14.00;64.40;;;;;;7362181;19;21046;-79
2022/05/28 04:49:36;;;;;;;3.63;2.00;;;13.90;65.50;;;;;;7368718;19;20416;-79
2022/05/28 04:52:07;;;;;;;5.90;1.70;;;13.90;65.50;;;;;;7372138;19;20505;-79
2022/05/28 04:54:36;;;;;;;3.43;1.53;;;13.90;66.30;;;;;;7372144;19;20401;-79
2022/05/28 04:57:06;;;;;;;5.93;2.47;;;14.00;65.70;;;;;;7365087;19;20477;-79
2022/05/28 04:59:39;;;;;;;4.57;1.60;;;13.90;65.20;;;;;;7362138;19;20523;-80
2022/05/28 05:02:11;;;;;;;6.43;1.90;;;13.90;65.80;;;;;;7371116;19;20425;-81
2022/05/28 05:04:40;;;;;;;6.43;1.87;;;14.00;66.30;;;;;;7376562;19;20412;-80
2022/05/28 05:07:10;;;;;;;6.87;2.50;;;14.00;66.90;;;;;;7372440;19;20438;-80
2022/05/28 05:09:42;;;;;;;3.40;1.70;;;14.00;65.90;;;;;;7371421;19;21527;-80
2022/05/28 05:12:12;;;;;;;6.63;1.80;;;14.00;67.70;;;;;;7371826;19;21054;-80
2022/05/28 05:14:41;;;;;;;10.10;2.00;;;14.00;66.50;;;;;;7362094;19;20999;-80
2022/05/28 05:17:13;;;;;;;6.90;2.00;;;13.90;65.80;;;;;;7366074;19;20392;-80
2022/05/28 05:19:43;;;;;;;3.53;1.30;;;14.30;66.40;;;;;;7367828;19;20488;-79
2022/05/28 05:22:12;;;;;;;7.60;2.20;;;14.40;65.70;;;;;;7374951;19;20540;-79
2022/05/28 05:24:42;;;;;;;4.60;1.97;;;14.70;65.40;;;;;;7373767;19;20424;-79
2022/05/28 05:27:16;;;;;;;5.07;2.00;;;14.40;64.30;;;;;;7374097;19;20487;-79
2022/05/28 05:29:45;;;;;;;6.13;2.57;;;14.40;64.50;;;;;;7365605;19;20408;-79
2022/05/28 05:32:20;;;;;;;3.90;1.80;;;14.50;63.80;;;;;;7370254;19;20417;-79
2022/05/28 05:34:52;;;;;;;4.77;1.57;;;14.40;63.80;;;;;;7374325;19;20902;-79
2022/05/28 05:37:24;;;;;;;3.00;2.10;;;14.50;64.70;;;;;;7369445;19;20400;-78
2022/05/28 05:39:53;;;;;;;5.80;2.00;;;14.60;63.30;;;;;;7375926;19;20449;-79
2022/05/28 05:42:25;;;;;;;2.90;1.33;;;14.60;63.20;;;;;;7371662;19;20999;-79
2022/05/28 05:44:55;;;;;;;4.60;1.50;;;14.60;63.50;;;;;;7369920;19;21231;-79
2022/05/28 05:47:27;;;;;;;4.73;1.60;;;14.70;63.30;;;;;;7371205;19;20925;-79
2022/05/28 05:49:57;;;;;;;4.10;2.07;;;14.70;62.60;;;;;;7364082;19;21177;-78
2022/05/28 05:52:29;;;;;;;8.63;2.43;;;14.60;62.80;;;;;;7371967;19;20384;-78
2022/05/28 05:55:02;;;;;;;9.17;1.90;;;14.60;62.60;;;;;;7371824;19;20995;-79
2022/05/28 05:57:34;;;;;;;8.90;2.00;;;14.80;63.20;;;;;;7369217;19;21169;-79
2022/05/28 06:00:03;;;;;;;5.87;2.07;;;14.90;63.30;;;;;;7363176;19;21006;-79
2022/05/28 06:02:39;;;;;;;6.20;1.87;;;13.40;59.50;;;;;;7375057;19;20401;-79
2022/05/28 06:05:11;;;;;;;8.30;2.30;;;15.00;61.80;;;;;;7370719;19;20406;-79
2022/05/28 06:07:40;;;;;;;4.70;1.70;;;15.10;61.30;;;;;;7372714;19;20924;-79
2022/05/28 06:10:13;;;;;;;4.30;1.83;;;15.20;60.30;;;;;;7370711;19;20416;-79
2022/05/28 06:12:43;;;;;;;6.50;1.70;;;15.20;60.00;;;;;;7368143;19;20415;-78
2022/05/28 06:15:13;;;;;;;7.83;1.73;;;15.40;60.00;;;;;;7378037;19;20412;-79
2022/05/28 06:17:48;;;;;;;5.47;2.30;;;15.50;60.50;;;;;;7360414;19;20425;-79
2022/05/28 06:20:18;;;;;;;4.97;1.70;;;15.70;58.70;;;;;;7369868;19;20411;-79
2022/05/28 06:22:47;;;;;;;6.00;1.80;;;15.90;57.70;;;;;;7371026;19;20405;-79
2022/05/28 06:25:17;;;;;;;3.67;1.50;;;16.00;57.70;;;;;;7369960;19;20841;-79
2022/05/28 06:27:47;;;;;;;8.73;1.80;;;16.00;56.50;;;;;;7362186;19;20736;-79
2022/05/28 06:30:17;;;;;;;5.60;2.30;;;16.20;56.40;;;;;;7359001;19;20412;-79
2022/05/28 06:32:49;;;;;;;3.93;1.20;;;16.40;55.40;;;;;;7369084;19;21195;-79
2022/05/28 06:35:19;;;;;;;4.37;1.67;;;16.50;54.90;;;;;;7358571;19;20427;-79
2022/05/28 06:37:50;;;;;;;4.50;1.53;;;16.50;54.50;;;;;;7365438;19;20436;-79
2022/05/28 06:40:21;;;;;;;6.63;1.50;;;16.50;53.50;;;;;;7357541;19;20427;-79
2022/05/28 06:42:51;;;;;;;6.70;1.40;;;16.70;54.70;;;;;;7348886;19;20413;-79
2022/05/28 06:45:21;;;;;;;3.50;1.10;;;16.80;52.60;;;;;;7355618;19;20412;-79
2022/05/28 06:47:53;;;;;;;4.30;2.03;;;16.80;52.10;;;;;;7344587;19;20902;-78
2022/05/28 06:53:09;;;;;;;5.10;1.50;;;16.70;50.50;;;;;;7364152;19;20404;-78
2022/05/28 06:55:41;;;;;;;4.40;1.33;;;16.70;50.50;;;;;;7369394;19;20841;-75
2022/05/28 06:58:11;;;;;;;7.03;2.70;;;16.70;51.10;;;;;;7363244;19;20423;-83
2022/05/28 07:00:44;;;;;;;2.03;1.13;;;16.80;50.80;;;;;;7365913;19;20416;-83
2022/05/28 07:03:19;;;;;;;8.70;2.40;;;16.90;51.40;;;;;;7371818;19;20924;-85
2022/05/28 07:05:49;;;;;;;6.33;1.60;;;17.00;52.80;;;;;;7373373;19;20903;-83
2022/05/28 07:08:19;;;;;;;2.00;1.40;;;17.00;50.70;;;;;;7373605;19;20558;-81
2022/05/28 07:10:51;;;;;;;6.23;1.10;;;17.00;50.60;;;;;;7371641;19;20412;-82
2022/05/28 07:13:21;;;;;;;6.47;1.30;;;16.80;49.90;;;;;;7344840;19;20923;-79
2022/05/28 07:15:51;;;;;;;3.43;1.40;;;16.90;50.50;;;;;;7364869;19;20730;-79
2022/05/28 07:18:24;;;;;;;6.30;1.47;;;16.80;49.30;;;;;;7363244;19;20429;-84
2022/05/28 07:20:53;;;;;;;2.10;1.37;;;16.80;50.00;;;;;;7369338;19;20479;-82
2022/05/28 07:23:25;;;;;;;3.80;1.50;;;16.90;49.60;;;;;;7371095;19;20380;-83
2022/05/28 07:26:02;;;;;;;6.30;1.70;;;17.00;48.40;;;;;;7369935;19;20854;-84
2022/05/28 07:28:33;;;;;;;3.40;1.30;;;17.10;49.80;;;;;;7363670;19;20977;-84
2022/05/28 07:31:07;;;;;;;6.23;1.20;;;17.20;49.20;;;;;;7361400;19;20754;-81
2022/05/28 07:33:41;;;;;;;4.20;1.30;;;17.40;49.50;;;;;;7364856;19;20424;-82
2022/05/28 07:36:15;;;;;;;7.50;1.20;;;17.50;48.80;;;;;;7350174;19;21177;-83
2022/05/28 07:38:48;;;;;;;4.17;1.20;;;17.70;51.10;;;;;;7359919;19;20777;-83
2022/05/28 07:41:20;;;;;;;3.60;1.30;;;17.80;48.20;;;;;;7368915;19;21121;-77
2022/05/28 07:43:54;;;;;;;2.97;1.63;;;18.10;48.90;;;;;;7352342;19;20931;-79
2022/05/28 07:46:26;;;;;;;2.70;1.07;;;18.10;46.60;;;;;;7365213;19;20500;-78
2022/05/28 07:49:06;;;;;;;3.07;1.33;;;18.30;46.40;;;;;;7370123;19;20392;-79
2022/05/28 07:51:36;;;;;;;2.10;1.00;;;18.40;45.70;;;;;;7362739;19;20412;-80
2022/05/28 07:54:08;;;;;;;4.10;1.17;;;18.60;45.80;;;;;;7368487;19;20392;-79
2022/05/28 07:56:40;;;;;;;3.70;1.33;;;18.70;44.90;;;;;;7348593;19;20466;-79
2022/05/28 07:59:10;;;;;;;1.87;0.90;;;18.70;44.80;;;;;;7352624;19;21052;-80
2022/05/28 08:01:41;;;;;;;3.07;0.90;;;18.60;43.50;;;;;;7360631;19;20912;-83
2022/05/28 08:04:14;;;;;;;7.43;1.13;;;18.40;43.90;;;;;;7364187;19;21058;-88
2022/05/28 08:06:44;;;;;;;3.37;0.97;;;18.50;44.30;;;;;;7361272;19;20424;-79
2022/05/28 08:09:14;;;;;;;1.33;0.80;;;18.60;43.70;;;;;;7370480;19;20371;-79
2022/05/28 08:11:44;;;;;;;2.13;0.90;;;18.60;42.80;;;;;;7378021;19;20400;-82
2022/05/28 08:14:16;;;;;;;1.10;0.90;;;18.70;43.20;;;;;;7369694;19;21039;-82
2022/05/28 08:16:48;;;;;;;2.17;0.80;;;18.90;42.20;;;;;;7375353;19;20423;-79
2022/05/28 08:19:20;;;;;;;4.00;1.20;;;19.00;42.80;;;;;;7370192;19;20408;-80
2022/05/28 08:24:32;;;;;;;4.73;1.07;;;19.50;41.60;;;;;;7371118;19;20424;-76
2022/05/28 08:27:01;;;;;;;1.77;0.77;;;19.80;41.90;;;;;;7368987;19;20441;-79
2022/05/28 08:29:31;;;;;;;3.20;1.33;;;20.00;40.30;;;;;;7366798;19;20770;-77
2022/05/28 08:32:01;;;;;;;3.43;1.07;;;20.00;41.20;;;;;;7366516;19;20785;-79
2022/05/28 08:34:36;;;;;;;4.20;1.83;;;20.00;41.70;;;;;;7361573;19;20423;-80
2022/05/28 08:37:07;;;;;;;1.77;0.97;;;20.00;41.30;;;;;;7358270;19;21026;-79
2022/05/28 08:39:37;;;;;;;4.47;1.27;;;20.10;42.10;;;;;;7365950;19;20412;-78
2022/05/28 08:42:09;;;;;;;1.83;1.23;;;20.40;42.00;;;;;;7357599;19;20388;-80
2022/05/28 08:44:41;;;;;;;3.67;1.00;;;20.90;41.40;;;;;;7353377;19;21018;-79
2022/05/28 08:47:21;;;;;;;1.70;1.00;;;21.60;41.80;;;;;;7364793;19;20404;-79
2022/05/28 08:49:58;;;;;;;3.57;1.60;;;21.80;39.50;;;;;;7357536;19;20404;-80
2022/05/28 08:52:35;;;;;;;3.13;1.10;;;22.10;39.00;;;;;;7365613;19;20416;-80
2022/05/28 08:55:11;;;;;;;4.47;1.10;;;21.80;38.20;;;;;;7369338;19;20404;-79
2022/05/28 08:57:59;;;;;;;5.93;2.40;;;21.80;39.50;;;;;;7334288;19;20443;-80
2022/05/28 09:00:37;;;;;;;5.57;2.23;;;21.80;39.10;;;;;;7363272;19;20517;-80
2022/05/28 09:03:13;;;;;;;5.00;2.20;;;21.80;39.30;;;;;;7372853;19;20756;-79
2022/05/28 09:05:51;;;;;;;5.47;1.70;;;21.70;40.00;;;;;;7365561;19;20948;-80
2022/05/28 09:08:29;;;;;;;3.90;1.20;;;21.70;39.30;;;;;;7341679;19;20431;-80
2022/05/28 09:11:06;;;;;;;5.73;2.07;;;22.10;38.90;;;;;;7344389;19;20423;-81
2022/05/28 09:13:41;;;;;;;3.70;1.17;;;22.30;39.10;;;;;;7361909;19;20403;-80
2022/05/28 09:16:20;;;;;;;2.63;1.00;;;22.10;38.30;;;;;;7353853;19;20404;-84
2022/05/28 09:18:52;;;;;;;2.07;0.93;;;22.20;38.50;;;;;;7362895;19;20412;-86
2022/05/28 09:21:25;;;;;;;7.53;1.40;;;22.30;38.00;;;;;;7364737;19;20727;-83
2022/05/28 09:23:59;;;;;;;4.10;1.67;;;22.70;38.00;;;;;;7367301;19;20423;-79
2022/05/28 09:26:34;;;;;;;4.57;1.60;;;23.00;37.70;;;;;;7367718;19;20827;-80
2022/05/28 09:29:17;;;;;;;4.87;1.03;;;23.50;37.00;;;;;;7358937;19;20413;-81
2022/05/28 09:32:01;;;;;;;4.00;1.43;;;24.00;36.10;;;;;;7365186;19;20437;-78
2022/05/28 09:34:50;;;;;;;2.07;0.67;;;24.60;36.00;;;;;;7365499;19;21050;-80
2022/05/28 09:37:29;;;;;;;3.80;1.20;;;25.00;34.40;;;;;;7363084;19;20388;-80
2022/05/28 09:40:04;;;;;;;5.10;1.70;;;24.90;34.10;;;;;;7370199;19;20428;-80
2022/05/28 09:42:58;;;;;;;3.10;1.33;;;24.20;34.60;;;;;;7358144;19;21026;-80
2022/05/28 09:45:34;;;;;;;3.70;1.27;;;23.80;35.50;;;;;;7360250;19;20752;-78
2022/05/28 09:48:04;;;;;;;2.70;1.63;;;23.50;35.40;;;;;;7367512;19;20412;-76
2022/05/28 09:50:42;;;;;;;2.33;0.97;;;23.30;35.00;;;;;;7366505;19;21417;-82
2022/05/28 09:56:01;;;;;;;3.20;1.20;;;24.40;34.70;;;;;;7354539;19;20967;-84
2022/05/28 09:58:32;;;;;;;4.40;0.97;;;25.20;33.60;;;;;;7352769;19;20392;-81
2022/05/28 10:01:10;;;;;;;3.07;1.33;;;25.90;32.20;;;;;;7367091;19;20423;-81
2022/05/28 10:06:25;;;;;;;1.73;1.00;;;26.90;31.10;;;;;;7364869;19;20416;-81
2022/05/28 10:08:57;;;;;;;1.67;0.93;;;27.30;30.50;;;;;;7357426;19;20493;-80
2022/05/28 10:11:27;;;;;;;4.70;1.00;;;28.10;30.20;;;;;;7348344;19;20412;-79
2022/05/28 10:14:00;;;;;;;4.60;1.33;;;29.00;29.30;;;;;;7350723;19;20415;-80
2022/05/28 10:16:37;;;;;;;2.83;1.03;;;29.40;28.50;;;;;;7360945;19;20525;-82
2022/05/28 10:19:19;;;;;;;5.47;1.20;;;28.70;27.60;;;;;;7365557;19;21044;-79
2022/05/28 10:21:55;;;;;;;2.30;1.20;;;27.80;28.10;;;;;;7364557;19;20416;-80
2022/05/28 10:24:30;;;;;;;2.00;1.07;;;27.90;29.20;;;;;;7361386;19;20817;-79
2022/05/28 10:27:01;;;;;;;2.10;1.00;;;28.70;28.40;;;;;;7367477;19;20784;-79
2022/05/28 10:29:38;;;;;;;2.13;1.20;;;28.40;28.00;;;;;;7357050;19;20930;-79
2022/05/28 10:32:19;;;;;;;2.23;1.13;;;27.60;29.60;;;;;;7358773;19;20407;-80
2022/05/28 10:35:01;;;;;;;2.20;0.90;;;27.10;29.80;;;;;;7367031;19;20511;-80
2022/05/28 10:37:30;;;;;;;2.37;1.10;;;26.30;29.40;;;;;;7358064;19;20891;-82
2022/05/28 10:40:20;;;;;;;2.03;1.07;;;25.70;31.40;;;;;;7361577;19;20439;-78
2022/05/28 10:42:58;;;;;;;2.20;1.50;;;24.80;32.40;;;;;;7360454;19;21134;-78
2022/05/28 10:45:38;;;;;;;2.53;0.93;;;24.20;32.90;;;;;;7364066;19;20420;-80
2022/05/28 10:48:27;;;;;;;2.47;1.00;;;23.60;33.80;;;;;;7365608;19;20412;-80
2022/05/28 10:51:11;;;;;;;2.03;0.80;;;22.90;34.50;;;;;;7368064;19;21276;-79
2022/05/28 10:54:00;;;;;;;5.17;1.50;;;23.10;35.10;;;;;;7364138;19;20392;-79
2022/05/28 10:56:49;;;;;;;4.17;1.10;;;22.90;35.30;;;;;;7354780;19;20439;-80
2022/05/28 10:59:38;;;;;;;3.70;1.30;;;22.60;34.60;;;;;;7365709;19;20419;-82
2022/05/28 11:02:27;;;;;;;6.37;1.40;;;22.70;35.30;;;;;;7364633;19;20856;-80
2022/05/28 11:05:05;;;;;;;3.13;1.53;;;22.60;34.00;;;;;;7367378;19;20412;-78
2022/05/28 11:07:59;;;;;;;5.30;1.30;;;22.90;33.80;;;;;;7368174;19;20419;-81
2022/05/28 11:10:44;;;;;;;2.57;1.13;;;23.80;33.00;;;;;;7365933;19;20412;-80
2022/05/28 11:13:35;;;;;;;3.03;1.20;;;25.00;31.50;;;;;;7368274;19;20412;-81
2022/05/28 11:16:29;;;;;;;5.33;1.17;;;25.90;29.50;;;;;;7367245;19;20392;-81
2022/05/28 11:19:11;;;;;;;4.30;1.10;;;26.70;28.50;;;;;;7366318;19;20388;-81
2022/05/28 11:21:58;;;;;;;2.50;1.20;;;27.20;28.00;;;;;;7360324;19;20419;-82
2022/05/28 11:24:51;;;;;;;1.77;1.27;;;27.80;27.80;;;;;;7363566;19;21315;-79
2022/05/28 11:27:43;;;;;;;2.43;1.10;;;28.60;28.00;;;;;;7366923;19;20384;-78
2022/05/28 11:30:20;;;;;;;5.60;1.20;;;28.40;27.70;;;;;;7367249;19;21174;-79
2022/05/28 11:32:57;;;;;;;2.70;1.00;;;28.00;26.90;;;;;;7360641;19;20404;-79
2022/05/28 11:35:39;;;;;;;2.83;1.00;;;27.50;27.80;;;;;;7366384;19;20404;-78
2022/05/28 11:38:20;;;;;;;1.47;0.87;;;28.20;26.50;;;;;;7367566;19;20420;-77
2022/05/28 11:41:03;;;;;;;5.27;1.20;;;29.00;26.30;;;;;;7370429;19;20419;-77
2022/05/28 11:43:40;;;;;;;2.07;0.93;;;30.00;24.90;;;;;;7379085;19;20451;-78
2022/05/28 11:46:23;;;;;;;1.60;1.17;;;30.10;24.20;;;;;;7376049;19;21121;-78
2022/05/28 11:51:46;;;;;;;4.03;1.40;;;29.00;25.90;;;;;;7374260;19;20483;-80
2022/05/28 11:54:21;;;;;;;3.13;1.07;;;29.30;25.70;;;;;;7370897;19;20451;-79
2022/05/28 11:57:00;;;;;;;4.37;1.07;;;30.10;25.10;;;;;;7374297;19;20455;-79
2022/05/28 11:59:30;;;;;;;1.70;1.00;;;30.70;24.60;;;;;;7374360;19;21071;-80
2022/05/28 12:02:10;;;;;;;3.40;1.20;;;31.30;24.60;;;;;;7375764;19;20400;-80
2022/05/28 12:04:44;;;;;;;3.07;0.90;;;31.70;23.10;;;;;;7377992;19;20408;-81
2022/05/28 12:07:25;;;;;;;2.70;0.87;;;31.70;23.50;;;;;;7372193;19;20948;-80
2022/05/28 12:09:58;;;;;;;2.90;1.20;;;32.10;23.40;;;;;;7368624;19;20412;-82
2022/05/28 12:12:34;;;;;;;3.67;1.30;;;32.40;22.00;;;;;;7352918;19;20937;-82
2022/05/28 12:15:22;;;;;;;2.57;1.03;;;32.80;22.10;;;;;;7361321;19;20396;-86
2022/05/28 12:18:06;;;;;;;3.20;1.13;;;32.20;22.70;;;;;;7377079;19;20412;-83
2022/05/28 12:20:38;;;;;;;4.00;1.00;;;30.80;23.60;;;;;;7378523;19;20423;-83
2022/05/28 12:23:09;;;;;;;1.90;0.97;;;30.90;23.70;;;;;;7375258;19;21214;-84
2022/05/28 12:25:40;;;;;;;3.20;1.10;;;30.50;23.80;;;;;;7377942;19;21351;-91
2022/05/28 12:28:13;;;;;;;2.60;1.10;;;30.20;23.50;;;;;;7382501;19;20412;-85
2022/05/28 12:30:54;;;;;;;4.33;1.00;;;29.60;24.10;;;;;;7379314;19;21054;-86
2022/05/28 12:33:32;;;;;;;3.50;1.10;;;28.10;25.50;;;;;;7381572;19;20400;-86
2022/05/28 12:36:15;;;;;;;2.10;1.00;;;27.30;26.90;;;;;;7380280;19;20423;-82
2022/05/28 12:38:50;;;;;;;3.57;1.30;;;26.50;28.40;;;;;;7370525;19;20459;-83
2022/05/28 12:41:27;;;;;;;2.97;1.07;;;26.10;28.50;;;;;;7371883;19;20408;-83
2022/05/28 12:44:13;;;;;;;2.33;1.00;;;25.90;29.40;;;;;;7373987;19;20408;-84
2022/05/28 12:46:49;;;;;;;2.53;1.10;;;26.40;28.60;;;;;;7372795;19;20412;-82
2022/05/28 12:49:31;;;;;;;2.87;0.90;;;26.60;28.20;;;;;;7379447;19;20425;-82
2022/05/28 12:52:28;;;;;;;4.00;1.03;;;26.30;28.30;;;;;;7414079;19;20448;-83
2022/05/28 12:55:08;;;;;;;77.57;10.50;;;25.80;28.70;;;;;;7415248;19;20416;-84
2022/05/28 12:57:38;;;;;;;38.03;5.23;;;25.50;29.20;;;;;;7411922;19;20499;-88
2022/05/28 13:00:25;;;;;;;3.17;1.33;;;26.20;29.10;;;;;;7395177;19;20759;-86
2022/05/28 13:02:56;;;;;;;2.97;1.60;;;27.90;27.90;;;;;;7380229;19;20416;-80
2022/05/28 13:05:35;;;;;;;6.40;1.73;;;30.00;26.40;;;;;;7389813;19;20442;-89
2022/05/28 13:08:06;;;;;;;6.53;1.77;;;;;;;;;;7381103;19;20419;-88
2022/05/28 13:10:36;;;;;;;5.20;1.20;;;33.10;23.30;;;;;;7382686;19;20404;-82
2022/05/28 13:13:27;;;;;;;2.67;1.07;;;33.60;23.40;;;;;;7366831;19;20921;-82
2022/05/28 13:16:19;;;;;;;5.93;1.30;;;34.90;24.20;;;;;;7378544;19;20404;-81
2022/05/28 13:19:06;;;;;;;2.60;0.87;;;35.80;45.70;;;;;;7351771;19;20462;-86
2022/05/28 13:22:08;;;;;;;3.20;1.43;;;35.70;21.00;;;;;;7377536;19;20404;-86
2022/05/28 13:25:04;;;;;;;3.30;1.50;;;36.00;20.30;;;;;;7377287;19;20402;-88
2022/05/28 13:28:02;;;;;;;2.53;1.00;;;35.60;20.20;;;;;;7378508;19;20405;-85
2022/05/28 13:30:34;;;;;;;3.50;0.90;;;35.80;19.90;;;;;;7376179;19;21090;-85
2022/05/28 13:33:08;;;;;;;3.63;1.00;;;34.50;20.80;;;;;;7375445;19;20920;-84
2022/05/28 13:35:46;;;;;;;3.57;1.37;;;33.80;21.10;;;;;;7375685;19;20479;-83
2022/05/28 13:38:18;;;;;;;2.50;0.90;;;;;;;;;;7373195;19;20412;-83
2022/05/28 13:40:51;;;;;;;2.20;1.03;;;31.00;44.90;;;;;;7372156;19;20428;-85